Time;durP1;ratioP1;P1;durP2;ratioP2;P2;SDS_P1;SDS_P2;PMS_P1;PMS_P2;Temp;Humidity;BMP_temperature;BMP_pressure;BME280_temperature;BME280_humidity;BME280_pressure;Samples;Min_cycle;Max_cycle;Signal;HPM_P1;HPM_P2
2021/11/20 00:01:15;;;;;;;15.27;11.30;;;11.20;99.90;;;;;;5069434;28;20028;-72
2021/11/20 00:03:44;;;;;;;18.25;12.05;;;11.20;99.90;;;;;;5058804;28;20424;-72
2021/11/20 00:06:10;;;;;;;13.95;11.60;;;11.20;99.90;;;;;;5076425;28;20483;-72
2021/11/20 00:08:36;;;;;;;17.77;12.20;;;11.20;99.90;;;;;;5071297;28;20387;-72
2021/11/20 00:11:05;;;;;;;14.73;11.45;;;11.20;99.90;;;;;;5072823;28;20054;-71
2021/11/20 00:13:31;;;;;;;14.88;11.45;;;11.20;99.90;;;;;;5074124;28;20036;-72
2021/11/20 00:15:59;;;;;;;16.10;12.00;;;11.20;99.90;;;;;;5071354;28;20051;-72
2021/11/20 00:18:25;;;;;;;15.35;11.65;;;11.20;99.90;;;;;;5069704;28;20028;-72
2021/11/20 00:20:56;;;;;;;17.13;11.65;;;11.20;99.90;;;;;;5073569;28;20047;-72
2021/11/20 00:23:32;;;;;;;15.70;11.93;;;11.20;99.90;;;;;;5074349;28;20078;-71
2021/11/20 00:25:59;;;;;;;14.05;12.25;;;11.20;99.90;;;;;;5066218;28;20055;-72
2021/11/20 00:28:53;;;;;;;16.80;11.30;;;11.20;99.90;;;;;;5072695;28;20029;-72
2021/11/20 00:31:20;;;;;;;16.25;12.20;;;11.20;99.90;;;;;;5074078;28;20106;-72
2021/11/20 00:33:46;;;;;;;15.85;12.07;;;11.20;99.90;;;;;;5079329;28;20051;-72
2021/11/20 00:36:13;;;;;;;14.30;11.93;;;11.20;99.90;;;;;;5073971;28;20056;-72
2021/11/20 00:38:40;;;;;;;17.92;12.50;;;11.20;99.90;;;;;;5070410;28;20044;-72
2021/11/20 00:41:11;;;;;;;15.60;12.38;;;11.20;99.90;;;;;;5071917;28;20043;-72
2021/11/20 00:43:39;;;;;;;18.70;13.02;;;11.20;99.90;;;;;;5064287;28;20037;-72
2021/11/20 00:46:07;;;;;;;16.55;13.07;;;11.20;99.90;;;;;;5073591;28;20029;-72
2021/11/20 00:48:32;;;;;;;17.48;13.05;;;11.10;99.90;;;;;;5069837;28;20039;-72
2021/11/20 00:51:02;;;;;;;17.55;11.82;;;11.10;99.90;;;;;;5073081;28;20032;-72
2021/11/20 00:53:29;;;;;;;17.45;12.52;;;11.10;99.90;;;;;;5072168;28;20028;-72
2021/11/20 00:55:55;;;;;;;17.15;12.88;;;11.10;99.90;;;;;;5070005;28;20024;-72
2021/11/20 00:58:21;;;;;;;16.45;12.57;;;11.10;99.90;;;;;;5072977;28;20541;-72
2021/11/20 01:00:52;;;;;;;18.80;13.38;;;11.10;99.90;;;;;;5072464;28;20059;-72
2021/11/20 01:03:18;;;;;;;17.02;12.27;;;11.10;99.90;;;;;;5073896;28;20021;-72
2021/11/20 01:05:44;;;;;;;19.15;12.88;;;11.10;99.90;;;;;;5070695;28;20501;-72
2021/11/20 01:08:11;;;;;;;16.98;12.90;;;11.10;99.90;;;;;;5070558;28;20028;-72
2021/11/20 01:10:41;;;;;;;17.88;12.82;;;11.10;99.90;;;;;;5072643;28;20500;-72
2021/11/20 01:13:06;;;;;;;17.90;12.82;;;11.10;99.90;;;;;;5071878;28;20050;-72
2021/11/20 01:15:38;;;;;;;21.67;13.43;;;11.10;99.90;;;;;;5071834;28;20425;-72
2021/11/20 01:18:05;;;;;;;17.42;12.10;;;11.10;99.90;;;;;;5071083;28;20036;-72
2021/11/20 01:20:31;;;;;;;16.00;12.73;;;11.10;99.90;;;;;;5071181;28;20116;-72
2021/11/20 01:22:57;;;;;;;16.40;12.35;;;11.10;99.90;;;;;;5073366;28;20103;-72
2021/11/20 01:25:25;;;;;;;17.23;13.07;;;11.10;99.90;;;;;;5067028;28;20485;-72
2021/11/20 01:27:50;;;;;;;14.88;11.55;;;11.10;99.90;;;;;;5071068;28;20044;-72
2021/11/20 01:30:16;;;;;;;17.10;12.75;;;11.10;99.90;;;;;;5070346;28;20024;-72
2021/11/20 01:32:42;;;;;;;17.73;12.52;;;11.10;99.90;;;;;;5073126;28;20023;-72
2021/11/20 01:35:10;;;;;;;16.13;12.68;;;11.10;99.90;;;;;;5071655;28;20493;-72
2021/11/20 01:37:38;;;;;;;19.17;13.38;;;11.10;99.90;;;;;;5069771;28;20394;-72
2021/11/20 01:40:07;;;;;;;16.20;13.20;;;11.10;99.90;;;;;;5069215;28;20032;-72
2021/11/20 01:42:33;;;;;;;16.77;13.57;;;11.00;99.90;;;;;;5069444;28;20035;-72
2021/11/20 01:45:09;;;;;;;16.17;13.02;;;11.00;99.90;;;;;;5071470;28;20024;-72
2021/11/20 01:48:05;;;;;;;16.92;13.75;;;11.10;99.90;;;;;;5071773;28;20138;-72
2021/11/20 01:50:34;;;;;;;18.55;14.05;;;11.00;99.90;;;;;;5069813;28;20036;-72
2021/11/20 01:53:21;;;;;;;16.75;13.32;;;11.00;99.90;;;;;;5072689;28;20078;-72
2021/11/20 01:56:18;;;;;;;19.55;14.77;;;11.00;99.90;;;;;;5059586;28;20040;-72
2021/11/20 01:58:57;;;;;;;19.85;14.13;;;11.00;99.90;;;;;;5051576;28;20453;-72
2021/11/20 02:01:28;;;;;;;18.73;13.95;;;11.00;99.90;;;;;;5065187;28;20064;-72
2021/11/20 02:04:27;;;;;;;18.23;13.80;;;11.00;99.90;;;;;;5072090;28;20118;-72
2021/11/20 02:07:22;;;;;;;16.85;13.88;;;11.00;99.90;;;;;;5063456;28;20078;-72
2021/11/20 02:10:04;;;;;;;19.88;14.57;;;11.00;99.90;;;;;;5079327;28;20370;-72
2021/11/20 02:12:34;;;;;;;18.05;13.80;;;11.00;99.90;;;;;;5071765;28;20050;-72
2021/11/20 02:15:01;;;;;;;21.17;14.50;;;11.00;99.90;;;;;;5062804;28;20094;-72
2021/11/20 02:17:35;;;;;;;21.30;16.33;;;11.00;99.90;;;;;;5068286;28;20051;-72
2021/11/20 02:20:08;;;;;;;21.50;15.90;;;11.00;99.90;;;;;;5070387;28;20089;-72
2021/11/20 02:22:38;;;;;;;21.05;14.82;;;11.00;99.90;;;;;;5067990;28;20032;-72
2021/11/20 02:25:03;;;;;;;21.48;15.40;;;11.00;99.90;;;;;;5067945;28;20062;-73
2021/11/20 02:27:32;;;;;;;20.80;16.23;;;11.00;99.90;;;;;;5069903;28;20041;-72
2021/11/20 02:30:12;;;;;;;23.13;16.88;;;11.00;99.90;;;;;;5069832;28;20143;-72
2021/11/20 02:32:38;;;;;;;21.77;16.75;;;11.00;99.90;;;;;;5069105;28;20103;-72
2021/11/20 02:35:06;;;;;;;20.77;16.42;;;11.00;99.90;;;;;;5069757;28;20095;-72
2021/11/20 02:37:31;;;;;;;23.85;16.17;;;11.00;99.90;;;;;;5069949;28;20048;-73
2021/11/20 02:39:57;;;;;;;24.70;17.98;;;11.00;99.90;;;;;;5069777;28;20535;-72
2021/11/20 02:42:24;;;;;;;22.85;16.77;;;11.00;99.90;;;;;;5068787;28;20036;-72
2021/11/20 02:44:50;;;;;;;21.88;17.02;;;11.00;99.90;;;;;;5069921;28;20030;-72
2021/11/20 02:47:32;;;;;;;24.00;17.75;;;11.00;99.90;;;;;;5066271;28;20579;-72
2021/11/20 02:49:58;;;;;;;28.67;19.67;;;11.00;99.90;;;;;;5077643;28;20151;-72
2021/11/20 02:52:24;;;;;;;24.80;18.30;;;11.00;99.90;;;;;;5073157;28;20039;-72
2021/11/20 02:54:51;;;;;;;26.60;18.65;;;10.90;99.90;;;;;;5071285;28;20386;-72
2021/11/20 02:57:32;;;;;;;25.50;18.00;;;11.00;99.90;;;;;;5069610;28;20023;-72
2021/11/20 02:59:58;;;;;;;25.08;18.90;;;11.00;99.90;;;;;;5070255;28;20094;-72
2021/11/20 03:02:25;;;;;;;26.48;19.10;;;10.90;99.90;;;;;;5069769;28;20074;-72
2021/11/20 03:04:50;;;;;;;25.70;19.60;;;10.90;99.90;;;;;;5071310;28;20052;-72
2021/11/20 03:07:16;;;;;;;25.88;18.83;;;10.90;99.90;;;;;;5078413;28;20051;-72
2021/11/20 03:09:42;;;;;;;30.25;21.48;;;10.90;99.90;;;;;;5067704;28;20069;-72
2021/11/20 03:12:11;;;;;;;27.30;19.77;;;10.90;99.90;;;;;;5067228;28;20419;-72
2021/11/20 03:14:37;;;;;;;27.33;21.45;;;10.90;99.90;;;;;;5071637;28;20048;-72
2021/11/20 03:17:06;;;;;;;27.70;20.92;;;10.90;99.90;;;;;;5067633;28;20028;-72
2021/11/20 03:19:37;;;;;;;29.10;20.58;;;10.90;99.90;;;;;;5073710;28;20036;-72
2021/11/20 03:22:10;;;;;;;32.47;23.35;;;10.90;99.90;;;;;;5070311;28;20058;-72
2021/11/20 03:24:37;;;;;;;30.60;21.27;;;10.90;99.90;;;;;;5084376;28;20073;-72
2021/11/20 03:27:03;;;;;;;31.58;22.58;;;10.90;99.90;;;;;;5064137;28;20052;-72
2021/11/20 03:29:30;;;;;;;35.92;24.08;;;10.90;99.90;;;;;;5068700;28;20047;-72
2021/11/20 03:31:57;;;;;;;34.63;23.02;;;10.90;99.90;;;;;;5069549;28;20033;-72
2021/11/20 03:34:25;;;;;;;29.75;21.80;;;10.90;99.90;;;;;;5071554;28;20032;-72
2021/11/20 03:36:51;;;;;;;31.35;22.08;;;10.90;99.90;;;;;;5069142;28;20021;-72
2021/11/20 03:39:16;;;;;;;31.20;23.02;;;10.90;99.90;;;;;;5068204;28;20081;-72
2021/11/20 03:41:43;;;;;;;35.13;24.85;;;10.90;99.90;;;;;;5065496;28;20056;-72
2021/11/20 03:44:09;;;;;;;34.08;23.25;;;10.90;99.90;;;;;;5066004;28;20035;-72
2021/11/20 03:46:36;;;;;;;39.65;26.42;;;10.90;99.90;;;;;;5079312;28;20111;-72
2021/11/20 03:49:03;;;;;;;40.00;25.83;;;10.90;99.90;;;;;;5068691;28;20039;-72
2021/11/20 03:51:29;;;;;;;34.78;24.30;;;10.90;99.90;;;;;;5066780;28;20363;-72
2021/11/20 03:53:55;;;;;;;36.33;24.88;;;10.90;99.90;;;;;;5068564;28;20029;-72
2021/11/20 03:56:21;;;;;;;34.63;24.88;;;10.90;99.90;;;;;;5069786;28;20035;-72
2021/11/20 03:58:47;;;;;;;38.63;25.92;;;10.90;99.90;;;;;;5069470;28;20119;-72
2021/11/20 04:01:16;;;;;;;41.03;26.75;;;10.90;99.90;;;;;;5071801;28;20139;-72
2021/11/20 04:03:44;;;;;;;40.22;25.73;;;10.90;99.90;;;;;;5069586;28;20060;-72
2021/11/20 04:06:12;;;;;;;37.55;24.30;;;10.90;99.90;;;;;;5069425;28;20393;-72
2021/11/20 04:08:49;;;;;;;40.67;26.75;;;10.90;99.90;;;;;;5068558;28;20471;-72
2021/11/20 04:11:21;;;;;;;46.90;27.45;;;10.90;99.90;;;;;;5069045;28;20029;-72
2021/11/20 04:13:47;;;;;;;43.90;28.55;;;10.90;99.90;;;;;;5060633;28;20028;-72
2021/11/20 04:16:15;;;;;;;45.80;28.77;;;10.90;99.90;;;;;;5069431;28;20087;-72
2021/11/20 04:18:42;;;;;;;43.83;27.45;;;10.90;99.90;;;;;;5064548;28;20032;-72
2021/11/20 04:21:08;;;;;;;47.03;28.25;;;10.90;99.90;;;;;;5065596;28;20071;-73
2021/11/20 04:23:34;;;;;;;44.70;28.40;;;10.90;99.90;;;;;;5069582;28;20020;-73
2021/11/20 04:25:59;;;;;;;47.97;29.33;;;10.90;99.90;;;;;;5069626;28;20382;-72
2021/11/20 04:28:25;;;;;;;45.28;28.75;;;10.90;99.90;;;;;;5068365;28;20049;-72
2021/11/20 04:30:51;;;;;;;49.75;29.95;;;10.80;99.90;;;;;;5069503;28;20024;-72
2021/11/20 04:33:17;;;;;;;49.67;31.08;;;10.90;99.90;;;;;;5060777;28;20040;-72
2021/11/20 04:35:44;;;;;;;43.85;27.92;;;10.90;99.90;;;;;;5072000;28;20064;-73
2021/11/20 04:38:10;;;;;;;49.35;30.50;;;10.80;99.90;;;;;;5071936;28;20052;-73
2021/11/20 04:40:37;;;;;;;48.03;29.85;;;10.90;99.90;;;;;;5072659;28;20044;-73
2021/11/20 04:43:03;;;;;;;48.28;28.75;;;10.90;99.90;;;;;;5059551;28;20099;-73
2021/11/20 04:45:34;;;;;;;51.30;29.85;;;10.80;99.90;;;;;;5071486;28;20125;-72
2021/11/20 04:48:00;;;;;;;47.45;30.73;;;10.90;99.90;;;;;;5073203;28;20033;-73
2021/11/20 04:50:27;;;;;;;48.42;29.80;;;10.90;99.90;;;;;;5072518;28;20032;-73
2021/11/20 04:52:52;;;;;;;48.72;28.33;;;10.90;99.90;;;;;;5065733;28;20431;-72
2021/11/20 04:55:19;;;;;;;46.88;29.17;;;10.90;99.90;;;;;;5069452;28;20138;-72
2021/11/20 04:57:46;;;;;;;52.03;31.40;;;10.90;99.90;;;;;;5073282;28;20028;-72
2021/11/20 05:00:23;;;;;;;52.85;30.60;;;10.80;99.90;;;;;;5071659;28;20040;-72
2021/11/20 05:02:50;;;;;;;47.00;28.50;;;10.90;99.90;;;;;;5071111;28;20032;-72
2021/11/20 05:05:15;;;;;;;47.65;28.85;;;10.80;99.90;;;;;;5070297;28;20047;-72
2021/11/20 05:07:41;;;;;;;46.72;28.45;;;10.80;99.90;;;;;;5074284;28;20036;-72
2021/11/20 05:10:09;;;;;;;44.92;27.92;;;10.80;99.90;;;;;;5072050;28;20081;-73
2021/11/20 05:12:35;;;;;;;50.25;29.35;;;10.80;99.90;;;;;;5072017;28;20107;-73
2021/11/20 05:15:01;;;;;;;44.22;27.25;;;10.80;99.90;;;;;;5072036;28;20364;-72
2021/11/20 05:17:27;;;;;;;49.88;28.77;;;10.80;99.90;;;;;;5072442;28;20044;-73
2021/11/20 05:19:53;;;;;;;48.60;29.23;;;10.80;99.90;;;;;;5070348;28;20018;-72
2021/11/20 05:22:18;;;;;;;43.67;26.65;;;10.80;99.90;;;;;;5070722;28;20140;-73
2021/11/20 05:24:44;;;;;;;47.10;27.52;;;10.80;99.90;;;;;;5072760;28;20029;-72
2021/11/20 05:27:09;;;;;;;46.78;27.90;;;10.80;99.90;;;;;;5072220;28;20051;-73
2021/11/20 05:32:05;;;;;;;45.33;26.48;;;10.80;99.90;;;;;;5070867;28;20028;-73
2021/11/20 05:34:31;;;;;;;48.22;27.55;;;10.80;99.90;;;;;;5071432;28;20075;-73
2021/11/20 05:36:56;;;;;;;49.75;27.00;;;10.80;99.90;;;;;;5071399;28;20045;-73
2021/11/20 05:39:22;;;;;;;46.78;27.08;;;10.80;99.90;;;;;;5071380;28;20489;-72
2021/11/20 05:41:48;;;;;;;46.33;27.17;;;10.80;99.90;;;;;;5065360;28;20079;-72
2021/11/20 05:44:14;;;;;;;48.67;27.27;;;10.80;99.90;;;;;;5071117;28;20029;-72
2021/11/20 05:46:40;;;;;;;45.22;27.17;;;10.80;99.90;;;;;;5070175;28;20436;-73
2021/11/20 05:49:07;;;;;;;46.70;26.95;;;10.80;99.90;;;;;;5070279;28;20028;-73
2021/11/20 05:51:34;;;;;;;45.08;25.52;;;10.80;99.90;;;;;;5070751;28;20078;-72
2021/11/20 05:54:00;;;;;;;46.85;27.33;;;10.80;99.90;;;;;;5070628;28;20078;-73
2021/11/20 05:56:25;;;;;;;46.85;27.30;;;10.80;99.90;;;;;;5069197;28;20028;-72
2021/11/20 05:58:51;;;;;;;49.13;27.13;;;10.80;99.90;;;;;;5070653;28;20107;-72
2021/11/20 06:01:17;;;;;;;47.05;26.58;;;10.80;99.90;;;;;;5070334;28;20048;-72
2021/11/20 06:03:43;;;;;;;45.83;25.58;;;10.80;99.90;;;;;;5072637;28;20063;-72
2021/11/20 06:06:08;;;;;;;49.88;27.70;;;10.80;99.90;;;;;;5069360;28;20534;-72
2021/11/20 06:08:35;;;;;;;49.20;28.17;;;10.80;99.90;;;;;;5068228;28;20098;-72
2021/11/20 06:11:04;;;;;;;54.50;27.67;;;10.80;99.90;;;;;;5071009;28;20024;-73
2021/11/20 06:13:29;;;;;;;51.58;28.13;;;10.80;99.90;;;;;;5068701;28;20052;-72
2021/11/20 06:15:57;;;;;;;51.65;29.42;;;10.70;99.90;;;;;;5070107;28;20055;-72
2021/11/20 06:18:22;;;;;;;55.13;29.60;;;10.80;99.90;;;;;;5072637;28;20027;-73
2021/11/20 06:20:50;;;;;;;53.30;28.08;;;10.80;99.90;;;;;;5060985;28;20418;-72
2021/11/20 06:23:17;;;;;;;52.40;28.73;;;10.80;99.90;;;;;;5068961;28;20447;-72
2021/11/20 06:25:43;;;;;;;51.00;28.13;;;10.80;99.90;;;;;;5065679;28;20111;-72
2021/11/20 06:28:09;;;;;;;51.08;28.65;;;10.80;99.90;;;;;;5061660;28;20120;-72
2021/11/20 06:30:35;;;;;;;57.90;32.20;;;10.80;99.90;;;;;;5068247;28;20095;-72
2021/11/20 06:33:02;;;;;;;55.83;30.95;;;10.80;99.90;;;;;;5069638;28;20077;-71
2021/11/20 06:35:30;;;;;;;60.83;33.38;;;10.80;99.90;;;;;;5056199;28;20509;-71
2021/11/20 06:37:56;;;;;;;54.45;28.73;;;10.70;99.90;;;;;;5064038;28;20047;-71
2021/11/20 06:40:27;;;;;;;52.85;30.20;;;10.80;99.90;;;;;;5060905;28;20028;-71
2021/11/20 06:42:53;;;;;;;65.65;35.65;;;10.80;99.90;;;;;;5056778;28;20065;-71
2021/11/20 06:45:23;;;;;;;57.58;32.20;;;10.80;99.90;;;;;;5062930;28;20029;-72
2021/11/20 06:47:50;;;;;;;54.92;32.75;;;10.80;99.90;;;;;;5052181;28;20041;-71
2021/11/20 06:50:16;;;;;;;58.90;33.25;;;10.70;99.90;;;;;;5066405;28;20029;-71
2021/11/20 06:52:42;;;;;;;59.80;32.95;;;10.70;99.90;;;;;;5071144;28;20032;-71
2021/11/20 06:55:09;;;;;;;57.50;34.10;;;10.80;99.90;;;;;;5055505;28;20360;-71
2021/11/20 07:00:27;;;;;;;60.42;34.67;;;10.70;99.90;;;;;;5062564;28;20295;-71
2021/11/20 07:03:05;;;;;;;51.30;31.10;;;10.70;99.90;;;;;;5062292;28;20085;-71
2021/11/20 07:05:34;;;;;;;57.38;34.15;;;10.70;99.90;;;;;;5061254;28;20067;-71
2021/11/20 07:08:01;;;;;;;61.20;34.58;;;10.70;99.90;;;;;;5071398;28;20073;-71
2021/11/20 07:10:27;;;;;;;63.05;36.97;;;10.70;99.90;;;;;;5070103;28;20033;-71
2021/11/20 07:12:56;;;;;;;57.28;33.88;;;10.70;99.90;;;;;;5070843;28;20032;-71
2021/11/20 07:15:23;;;;;;;62.60;36.03;;;10.70;99.90;;;;;;5070413;28;20118;-71
2021/11/20 07:17:50;;;;;;;62.53;39.25;;;10.70;99.90;;;;;;5071818;28;20032;-71
2021/11/20 07:20:17;;;;;;;64.25;37.67;;;10.70;99.90;;;;;;5068675;28;20331;-71
2021/11/20 07:22:43;;;;;;;68.57;40.05;;;10.70;99.90;;;;;;5070988;28;20052;-71
2021/11/20 07:25:10;;;;;;;69.50;39.30;;;10.70;99.90;;;;;;5069532;28;20028;-71
2021/11/20 07:27:36;;;;;;;68.85;41.40;;;10.70;99.90;;;;;;5063422;28;20052;-72
2021/11/20 07:30:05;;;;;;;67.85;39.58;;;10.70;99.90;;;;;;5064066;28;20034;-73
2021/11/20 07:32:30;;;;;;;71.82;41.78;;;10.70;99.90;;;;;;5069505;28;20036;-73
2021/11/20 07:34:56;;;;;;;65.93;36.67;;;10.70;99.90;;;;;;5061352;28;20029;-72
2021/11/20 07:37:23;;;;;;;75.10;42.42;;;10.70;99.90;;;;;;5065307;28;20382;-72
2021/11/20 07:39:49;;;;;;;72.82;42.08;;;10.70;99.90;;;;;;5069668;28;20379;-74
2021/11/20 07:42:14;;;;;;;70.43;41.00;;;10.70;99.90;;;;;;5067925;28;20094;-73
2021/11/20 07:44:40;;;;;;;72.18;40.30;;;10.70;99.90;;;;;;5069906;28;20044;-74
2021/11/20 07:47:06;;;;;;;69.22;41.17;;;10.70;99.90;;;;;;5069053;28;20394;-74
2021/11/20 07:49:31;;;;;;;71.07;40.28;;;10.70;99.90;;;;;;5066920;28;20757;-73
2021/11/20 07:51:59;;;;;;;72.68;42.33;;;10.70;99.90;;;;;;5064244;28;20350;-75
2021/11/20 07:54:26;;;;;;;75.72;42.95;;;10.70;99.90;;;;;;5067049;28;20028;-71
2021/11/20 07:56:51;;;;;;;71.35;41.03;;;10.70;99.90;;;;;;5066699;28;20353;-72
2021/11/20 07:59:18;;;;;;;75.70;43.00;;;10.70;99.90;;;;;;5056852;28;20035;-71
2021/11/20 08:01:44;;;;;;;78.75;44.95;;;10.70;99.90;;;;;;5064731;28;20104;-71
2021/11/20 08:04:11;;;;;;;74.75;43.97;;;10.70;99.90;;;;;;5077496;28;20044;-71
2021/11/20 08:06:37;;;;;;;82.45;45.03;;;10.70;99.90;;;;;;5072746;28;20032;-71
2021/11/20 08:09:05;;;;;;;78.88;44.85;;;10.70;99.90;;;;;;5071275;28;20070;-71
2021/11/20 08:11:33;;;;;;;80.72;44.92;;;10.70;99.90;;;;;;5067221;28;20029;-72
2021/11/20 08:13:59;;;;;;;78.43;43.28;;;10.70;99.90;;;;;;5074636;28;20016;-72
2021/11/20 08:16:25;;;;;;;82.72;45.75;;;10.70;99.90;;;;;;5072974;28;20031;-71
2021/11/20 08:18:51;;;;;;;80.65;44.17;;;10.80;99.90;;;;;;5074324;28;20081;-71
2021/11/20 08:21:16;;;;;;;81.70;45.30;;;10.70;99.90;;;;;;5068995;28;20424;-71
2021/11/20 08:23:42;;;;;;;77.65;44.28;;;10.70;99.90;;;;;;5073474;28;20028;-71
2021/11/20 08:26:08;;;;;;;74.38;42.30;;;10.80;99.90;;;;;;5072069;28;20055;-71
2021/11/20 08:28:36;;;;;;;70.47;41.08;;;10.80;99.90;;;;;;5068271;28;20135;-71
2021/11/20 08:31:02;;;;;;;77.47;45.30;;;10.80;99.90;;;;;;5068316;28;20100;-73
2021/11/20 08:33:28;;;;;;;71.82;42.60;;;10.80;99.90;;;;;;5073228;28;20025;-73
2021/11/20 08:35:55;;;;;;;72.22;43.55;;;10.80;99.90;;;;;;5064300;28;20032;-73
2021/11/20 08:38:21;;;;;;;74.60;42.22;;;10.80;99.90;;;;;;5058047;28;20036;-72
2021/11/20 08:40:48;;;;;;;69.68;43.25;;;10.80;99.90;;;;;;5065746;28;20024;-71
2021/11/20 08:43:18;;;;;;;74.97;42.47;;;10.80;99.90;;;;;;5069429;28;20030;-73
2021/11/20 08:45:50;;;;;;;68.00;40.95;;;10.90;99.90;;;;;;5076255;28;20028;-73
2021/11/20 08:48:17;;;;;;;68.05;40.22;;;10.90;99.90;;;;;;5060297;28;20029;-72
2021/11/20 08:50:47;;;;;;;66.28;39.15;;;10.90;99.90;;;;;;5056550;28;20063;-73
2021/11/20 08:53:13;;;;;;;65.53;38.33;;;10.90;99.90;;;;;;5060451;28;20020;-73
2021/11/20 08:55:39;;;;;;;61.58;38.33;;;10.90;99.90;;;;;;5067600;28;20032;-73
2021/11/20 08:58:06;;;;;;;58.50;37.78;;;10.90;99.90;;;;;;5053752;28;20087;-72
2021/11/20 09:00:42;;;;;;;53.90;34.42;;;11.00;99.90;;;;;;5063220;28;20474;-72
2021/11/20 09:03:14;;;;;;;53.35;35.15;;;11.00;99.90;;;;;;5063128;28;20054;-72
2021/11/20 09:06:00;;;;;;;55.95;34.22;;;11.10;99.90;;;;;;5068627;28;20043;-72
2021/11/20 09:08:32;;;;;;;55.10;34.20;;;11.10;99.90;;;;;;5064946;28;20443;-72
2021/11/20 09:11:24;;;;;;;56.15;35.30;;;11.10;99.90;;;;;;5068695;28;20583;-72
2021/11/20 09:13:56;;;;;;;58.78;33.83;;;11.10;99.90;;;;;;5069179;28;20059;-72
2021/11/20 09:16:25;;;;;;;53.10;33.30;;;11.10;99.90;;;;;;5068004;28;20025;-72
2021/11/20 09:18:52;;;;;;;57.53;35.13;;;11.10;99.90;;;;;;5059642;28;20029;-72
2021/11/20 09:21:19;;;;;;;54.78;34.67;;;11.10;99.90;;;;;;5078523;28;20025;-72
2021/11/20 09:23:46;;;;;;;59.38;36.30;;;11.20;99.90;;;;;;5066857;28;20035;-73
2021/11/20 09:26:13;;;;;;;54.80;34.20;;;11.20;99.90;;;;;;5067025;28;20032;-72
2021/11/20 09:28:39;;;;;;;52.58;32.78;;;11.20;99.90;;;;;;5070838;28;20040;-73
2021/11/20 09:31:07;;;;;;;50.33;30.98;;;11.20;99.90;;;;;;5067051;28;20432;-72
2021/11/20 09:33:33;;;;;;;53.53;33.13;;;11.20;99.90;;;;;;5065134;28;20024;-72
2021/11/20 09:35:59;;;;;;;56.53;31.73;;;11.20;99.90;;;;;;5067850;28;20025;-73
2021/11/20 09:38:26;;;;;;;52.15;32.53;;;11.20;99.90;;;;;;5071231;28;20021;-72
2021/11/20 09:41:15;;;;;;;53.50;32.08;;;11.20;99.90;;;;;;5073120;28;20108;-73
2021/11/20 09:43:45;;;;;;;53.78;31.80;;;11.20;99.90;;;;;;5070762;28;20066;-72
2021/11/20 09:46:26;;;;;;;50.75;32.10;;;11.20;99.90;;;;;;5069991;28;20474;-72
2021/11/20 09:48:59;;;;;;;48.45;30.42;;;11.20;99.90;;;;;;5072414;28;20562;-72
2021/11/20 09:51:31;;;;;;;49.00;31.00;;;11.20;99.90;;;;;;5057387;28;20036;-73
2021/11/20 09:53:57;;;;;;;;;;;11.20;99.90;;;;;;5071604;28;20036;-73
2021/11/20 09:56:31;;;;;;;50.90;29.27;;;11.10;99.90;;;;;;5073351;28;19904;-72
2021/11/20 09:59:05;;;;;;;51.60;31.58;;;11.20;99.90;;;;;;5065433;28;20033;-73
2021/11/20 10:01:38;;;;;;;50.60;30.67;;;11.20;99.90;;;;;;5068851;28;20029;-72
2021/11/20 10:04:05;;;;;;;49.38;31.08;;;11.20;99.90;;;;;;5065786;28;20339;-72
2021/11/20 10:06:39;;;;;;;54.03;32.08;;;11.20;99.90;;;;;;5072953;28;20479;-73
2021/11/20 10:09:19;;;;;;;55.55;33.05;;;11.20;99.90;;;;;;5072326;28;20475;-73
2021/11/20 10:12:18;;;;;;;53.55;32.10;;;11.20;99.90;;;;;;5065052;28;20029;-72
2021/11/20 10:14:54;;;;;;;53.33;31.20;;;11.20;99.90;;;;;;5072107;28;20032;-72
2021/11/20 10:17:28;;;;;;;51.33;31.83;;;11.20;99.90;;;;;;5073251;28;20112;-72
2021/11/20 10:19:59;;;;;;;54.00;32.38;;;11.20;99.90;;;;;;5066139;28;20020;-73
2021/11/20 10:22:37;;;;;;;49.10;30.15;;;11.20;99.90;;;;;;5065676;28;20029;-73
2021/11/20 10:25:14;;;;;;;54.47;32.90;;;11.30;99.90;;;;;;5062479;28;20017;-73
2021/11/20 10:28:10;;;;;;;52.20;32.22;;;11.20;99.90;;;;;;5064294;28;20060;-74
2021/11/20 10:30:51;;;;;;;55.58;33.20;;;11.30;99.90;;;;;;5061159;28;20110;-72
2021/11/20 10:33:31;;;;;;;54.38;31.90;;;11.30;99.90;;;;;;5062742;28;20025;-72
2021/11/20 10:36:06;;;;;;;51.95;31.10;;;11.30;99.90;;;;;;5064820;28;20033;-72
2021/11/20 10:38:43;;;;;;;54.20;32.55;;;11.30;99.90;;;;;;5071561;28;20082;-70
2021/11/20 10:41:25;;;;;;;53.95;32.65;;;11.40;99.90;;;;;;5068082;28;20031;-71
2021/11/20 10:43:55;;;;;;;49.08;30.63;;;11.40;99.90;;;;;;5064681;28;20033;-71
2021/11/20 10:46:30;;;;;;;56.80;33.42;;;11.40;99.90;;;;;;5069904;28;20028;-71
2021/11/20 10:49:26;;;;;;;53.92;33.22;;;11.40;99.90;;;;;;5069851;28;20029;-71
2021/11/20 10:52:14;;;;;;;48.25;30.45;;;11.40;99.90;;;;;;5068216;28;20047;-71
2021/11/20 10:55:05;;;;;;;44.92;28.98;;;11.40;99.90;;;;;;5071378;28;20382;-70
2021/11/20 10:58:13;;;;;;;47.90;30.55;;;11.30;99.90;;;;;;5074399;28;20478;-70
2021/11/20 11:01:07;;;;;;;47.95;29.63;;;11.30;99.90;;;;;;5061879;28;20078;-70
2021/11/20 11:03:38;;;;;;;48.90;30.00;;;11.40;99.90;;;;;;5051221;28;20056;-71
2021/11/20 11:06:38;;;;;;;47.75;29.35;;;11.30;99.90;;;;;;5068998;28;20027;-72
2021/11/20 11:09:16;;;;;;;44.88;30.23;;;11.30;99.90;;;;;;5072023;28;20022;-71
2021/11/20 11:11:56;;;;;;;42.60;27.55;;;11.30;99.90;;;;;;5069595;28;20048;-72
2021/11/20 11:14:48;;;;;;;43.60;27.90;;;11.30;99.90;;;;;;5071177;28;20110;-71
2021/11/20 11:17:39;;;;;;;42.15;28.38;;;11.40;99.90;;;;;;5068665;28;20032;-72
2021/11/20 11:20:35;;;;;;;44.95;27.27;;;11.30;99.90;;;;;;5070185;28;20440;-72
2021/11/20 11:23:27;;;;;;;44.10;27.80;;;11.30;99.90;;;;;;5062438;28;20037;-71
2021/11/20 11:26:05;;;;;;;46.73;28.73;;;11.30;99.90;;;;;;5038931;28;20043;-70
2021/11/20 11:28:44;;;;;;;39.72;25.67;;;11.30;99.90;;;;;;5068627;28;20864;-70
2021/11/20 11:31:33;;;;;;;44.13;27.45;;;11.30;99.90;;;;;;5064907;28;20021;-70
2021/11/20 11:34:08;;;;;;;45.13;28.90;;;11.30;99.90;;;;;;5066188;28;20107;-72
2021/11/20 11:36:48;;;;;;;43.83;28.08;;;11.30;99.90;;;;;;5070837;28;20043;-72
2021/11/20 11:39:22;;;;;;;50.30;29.40;;;11.40;99.90;;;;;;5067742;28;20032;-72
2021/11/20 11:42:25;;;;;;;43.05;27.50;;;11.40;99.90;;;;;;5068449;28;20090;-71
2021/11/20 11:44:57;;;;;;;45.03;27.85;;;11.40;99.90;;;;;;5071623;28;20029;-72
2021/11/20 11:47:34;;;;;;;41.30;26.40;;;11.40;99.90;;;;;;5071606;28;20032;-72
2021/11/20 11:50:31;;;;;;;40.42;24.88;;;11.40;99.90;;;;;;5051912;28;20403;-71
2021/11/20 11:52:56;;;;;;;43.78;26.38;;;11.40;99.90;;;;;;5059169;28;20029;-72
2021/11/20 11:55:31;;;;;;;42.85;26.67;;;11.40;99.90;;;;;;5061091;28;20219;-71
2021/11/20 11:58:05;;;;;;;41.47;26.05;;;11.40;99.90;;;;;;5071907;28;20107;-71
2021/11/20 12:01:05;;;;;;;42.33;26.70;;;11.40;99.90;;;;;;5068919;28;20032;-72
2021/11/20 12:03:38;;;;;;;40.70;26.23;;;11.40;99.90;;;;;;5059780;28;20041;-71
2021/11/20 12:06:10;;;;;;;40.97;26.33;;;11.40;99.90;;;;;;5069375;28;20029;-72
2021/11/20 12:08:46;;;;;;;36.97;23.67;;;11.40;99.90;;;;;;5063321;28;20051;-71
2021/11/20 12:11:30;;;;;;;35.40;22.70;;;11.40;99.90;;;;;;5061920;28;20021;-72
2021/11/20 12:14:13;;;;;;;31.67;21.00;;;11.40;99.90;;;;;;5070758;28;20028;-72
2021/11/20 12:16:59;;;;;;;31.50;20.70;;;11.40;99.90;;;;;;5069407;28;20463;-71
2021/11/20 12:19:51;;;;;;;31.10;19.75;;;11.40;99.90;;;;;;5070050;28;20478;-72
2021/11/20 12:22:29;;;;;;;27.52;18.02;;;11.40;99.90;;;;;;5070468;28;20040;-71
2021/11/20 12:25:03;;;;;;;29.05;18.75;;;11.40;99.90;;;;;;5069623;28;20055;-72
2021/11/20 12:27:40;;;;;;;30.50;20.00;;;11.40;99.90;;;;;;5065139;28;20055;-71
2021/11/20 12:30:18;;;;;;;29.27;18.40;;;11.40;99.90;;;;;;5057802;28;20123;-71
2021/11/20 12:33:21;;;;;;;27.10;17.42;;;11.50;99.90;;;;;;5056493;28;20024;-71
2021/11/20 12:35:49;;;;;;;25.00;16.50;;;11.50;99.90;;;;;;5068685;28;20082;-72
2021/11/20 12:38:22;;;;;;;27.08;17.60;;;11.50;99.90;;;;;;5066312;28;20040;-73
2021/11/20 12:41:26;;;;;;;26.33;17.02;;;11.50;99.90;;;;;;5064863;28;20025;-72
2021/11/20 12:44:10;;;;;;;28.08;17.60;;;11.40;99.90;;;;;;4967433;28;20031;-72
2021/11/20 12:46:51;;;;;;;26.23;16.92;;;11.40;99.90;;;;;;5057561;28;20044;-72
2021/11/20 12:49:35;;;;;;;28.95;16.42;;;11.40;99.90;;;;;;5067703;28;20465;-72
2021/11/20 12:52:01;;;;;;;25.70;16.63;;;11.40;99.90;;;;;;5070273;28;20029;-72
2021/11/20 12:55:00;;;;;;;26.70;17.67;;;11.40;99.90;;;;;;5073690;28;20116;-72